Time;durP1;ratioP1;P1;durP2;ratioP2;P2;SDS_P1;SDS_P2;PMS_P1;PMS_P2;Temp;Humidity;BMP_temperature;BMP_pressure;BME280_temperature;BME280_humidity;BME280_pressure;Samples;Min_cycle;Max_cycle;Signal;HPM_P1;HPM_P2
2020/12/27 00:00:53;;;;;;;8.93;6.33;;;5.70;99.90;;;;;;5072230;28;20750;-80
2020/12/27 00:03:20;;;;;;;9.30;5.80;;;5.70;99.90;;;;;;5073334;28;20250;-79
2020/12/27 00:05:46;;;;;;;9.40;6.13;;;5.70;99.90;;;;;;5071904;28;20659;-79
2020/12/27 00:08:13;;;;;;;10.37;5.60;;;5.70;99.90;;;;;;5071891;28;20669;-79
2020/12/27 00:10:39;;;;;;;8.23;5.80;;;5.70;99.90;;;;;;5074903;28;20193;-80
2020/12/27 00:13:05;;;;;;;9.13;5.87;;;5.70;99.90;;;;;;5075014;28;20279;-80
2020/12/27 00:15:33;;;;;;;8.47;5.83;;;5.60;99.90;;;;;;5074633;28;20199;-80
2020/12/27 00:17:59;;;;;;;10.20;5.37;;;5.60;99.90;;;;;;5072643;28;20750;-79
2020/12/27 00:20:26;;;;;;;8.50;4.93;;;5.60;99.90;;;;;;5074388;28;20215;-80
2020/12/27 00:22:52;;;;;;;8.40;5.63;;;5.70;99.90;;;;;;5075668;28;20286;-79
2020/12/27 00:25:18;;;;;;;8.97;5.70;;;5.70;99.90;;;;;;5074722;28;20229;-80
2020/12/27 00:27:45;;;;;;;7.97;5.30;;;5.70;99.90;;;;;;5074449;28;20278;-80
2020/12/27 00:30:11;;;;;;;7.23;5.13;;;5.70;99.90;;;;;;5074548;28;20283;-79
2020/12/27 00:32:38;;;;;;;9.57;5.47;;;5.70;99.90;;;;;;5071945;28;20283;-80
2020/12/27 00:35:05;;;;;;;8.07;5.00;;;5.60;99.90;;;;;;5074530;28;20203;-79
2020/12/27 00:37:32;;;;;;;9.27;5.00;;;5.60;99.90;;;;;;5073703;28;20205;-80
2020/12/27 00:39:58;;;;;;;6.03;4.47;;;5.70;99.90;;;;;;5071816;28;20288;-80
2020/12/27 00:42:24;;;;;;;5.00;4.00;;;5.60;99.90;;;;;;5074298;28;20224;-80
2020/12/27 00:44:51;;;;;;;6.73;4.93;;;5.60;99.90;;;;;;5074361;28;20229;-80
2020/12/27 00:47:17;;;;;;;7.70;3.93;;;5.60;99.90;;;;;;5074376;28;20658;-80
2020/12/27 00:49:44;;;;;;;7.47;4.20;;;5.60;99.90;;;;;;5074367;28;20189;-79
2020/12/27 00:52:11;;;;;;;7.17;4.27;;;5.60;99.90;;;;;;5074327;28;20193;-80
2020/12/27 00:54:37;;;;;;;6.17;4.60;;;5.60;99.90;;;;;;5072222;28;20196;-79
2020/12/27 00:57:03;;;;;;;5.50;4.07;;;5.60;99.90;;;;;;5074061;28;20195;-79
2020/12/27 00:59:30;;;;;;;7.53;4.50;;;5.60;99.90;;;;;;5073397;28;20200;-79
2020/12/27 01:01:56;;;;;;;8.33;3.90;;;5.60;99.90;;;;;;5074153;28;20306;-79
2020/12/27 01:04:24;;;;;;;6.70;3.80;;;5.70;99.90;;;;;;5074117;28;20259;-79
2020/12/27 01:06:51;;;;;;;5.00;3.17;;;5.60;99.90;;;;;;5074374;28;20202;-79
2020/12/27 01:09:17;;;;;;;3.70;2.93;;;5.60;99.90;;;;;;5074140;28;20278;-79
2020/12/27 01:11:46;;;;;;;9.23;3.70;;;5.70;99.90;;;;;;5073962;28;20205;-80
2020/12/27 01:14:13;;;;;;;7.83;3.90;;;5.70;99.90;;;;;;5073855;28;20201;-79
2020/12/27 01:16:39;;;;;;;5.23;3.40;;;5.70;99.90;;;;;;5071311;28;20204;-79
2020/12/27 01:19:06;;;;;;;8.43;3.80;;;5.60;99.90;;;;;;5073778;28;20314;-80
2020/12/27 01:21:32;;;;;;;5.90;3.47;;;5.60;99.90;;;;;;5073767;28;20264;-80
2020/12/27 01:23:59;;;;;;;8.10;3.37;;;5.70;99.90;;;;;;5071156;28;20280;-79
2020/12/27 01:26:30;;;;;;;6.37;3.43;;;5.60;99.90;;;;;;5073996;28;20283;-79
2020/12/27 01:28:56;;;;;;;5.83;3.27;;;5.60;99.90;;;;;;5073762;28;20195;-80
2020/12/27 01:31:23;;;;;;;7.07;3.40;;;5.60;99.90;;;;;;5073706;28;20667;-80
2020/12/27 01:33:50;;;;;;;4.43;3.20;;;5.60;99.90;;;;;;5073534;28;20283;-79
2020/12/27 01:36:24;;;;;;;5.13;3.13;;;5.60;99.90;;;;;;5073449;28;20255;-79
2020/12/27 01:38:50;;;;;;;4.93;3.20;;;5.60;99.90;;;;;;5073519;28;20650;-79
2020/12/27 01:41:22;;;;;;;6.43;3.30;;;5.70;99.90;;;;;;5073279;28;20251;-79
2020/12/27 01:44:00;;;;;;;6.53;3.20;;;5.70;99.90;;;;;;5073707;28;20972;-80
2020/12/27 01:46:26;;;;;;;4.57;2.90;;;5.70;99.90;;;;;;5072182;28;20207;-79
2020/12/27 01:48:53;;;;;;;4.90;2.60;;;5.70;99.90;;;;;;5073915;28;20197;-79
2020/12/27 01:51:19;;;;;;;6.27;3.10;;;5.70;99.90;;;;;;5071787;28;20288;-80
2020/12/27 01:53:46;;;;;;;5.50;3.10;;;5.70;99.90;;;;;;5074323;28;20202;-79
2020/12/27 01:56:15;;;;;;;6.37;3.37;;;5.70;99.90;;;;;;5073629;28;20230;-79
2020/12/27 01:58:45;;;;;;;4.27;2.70;;;5.70;99.90;;;;;;5071434;28;20245;-79
2020/12/27 02:01:12;;;;;;;5.60;3.00;;;5.70;99.90;;;;;;5073344;28;20570;-79
2020/12/27 02:03:39;;;;;;;6.83;3.20;;;5.70;99.90;;;;;;5070611;28;20283;-79
2020/12/27 02:06:06;;;;;;;3.90;2.80;;;5.70;99.90;;;;;;5072713;28;20284;-79
2020/12/27 02:08:32;;;;;;;4.90;2.97;;;5.70;99.90;;;;;;5073314;28;20193;-79
2020/12/27 02:11:00;;;;;;;3.80;2.80;;;5.80;99.90;;;;;;5070367;28;20199;-79
2020/12/27 02:13:26;;;;;;;4.73;2.50;;;5.80;99.90;;;;;;5072960;28;20191;-79
2020/12/27 02:15:53;;;;;;;4.20;2.57;;;5.80;99.90;;;;;;5073192;28;20276;-79
2020/12/27 02:18:20;;;;;;;3.00;2.27;;;5.80;99.90;;;;;;5072733;28;20245;-79
2020/12/27 02:20:46;;;;;;;3.93;2.37;;;5.80;99.90;;;;;;5072727;28;20221;-79
2020/12/27 02:23:15;;;;;;;4.03;2.60;;;5.80;99.90;;;;;;5072678;28;20280;-79
2020/12/27 02:25:43;;;;;;;3.50;2.13;;;5.80;99.90;;;;;;5070341;28;20549;-79
2020/12/27 02:28:09;;;;;;;5.43;2.20;;;5.80;99.90;;;;;;5072629;28;20199;-79
2020/12/27 02:30:36;;;;;;;4.97;2.27;;;5.90;99.90;;;;;;5072657;28;20194;-79
2020/12/27 02:33:02;;;;;;;3.13;2.20;;;5.90;99.90;;;;;;5072294;28;20734;-79
2020/12/27 02:35:28;;;;;;;4.70;2.23;;;5.80;99.90;;;;;;5072508;28;20269;-80
2020/12/27 02:37:55;;;;;;;4.37;2.03;;;5.90;99.90;;;;;;5072323;28;20265;-80
2020/12/27 02:40:21;;;;;;;2.37;1.97;;;5.80;99.90;;;;;;5072146;28;20287;-79
2020/12/27 02:42:48;;;;;;;3.43;2.00;;;5.90;99.90;;;;;;5072223;28;20224;-79
2020/12/27 02:45:15;;;;;;;2.40;1.80;;;5.80;99.90;;;;;;5072025;28;20649;-80
2020/12/27 02:47:41;;;;;;;3.57;2.00;;;5.80;99.90;;;;;;5072281;28;20192;-80
2020/12/27 02:50:11;;;;;;;3.00;2.10;;;5.80;99.90;;;;;;5072279;28;20288;-79
2020/12/27 02:52:38;;;;;;;2.93;2.10;;;5.80;99.90;;;;;;5071828;28;20277;-80
2020/12/27 02:55:04;;;;;;;4.03;2.10;;;5.80;99.90;;;;;;5071946;28;20198;-80
2020/12/27 02:57:31;;;;;;;2.93;2.10;;;5.80;99.90;;;;;;5072270;28;20278;-80
2020/12/27 02:59:58;;;;;;;3.00;1.87;;;5.70;99.90;;;;;;5071694;28;20282;-79
2020/12/27 03:02:24;;;;;;;3.43;1.97;;;5.70;99.90;;;;;;5072414;28;20317;-79
2020/12/27 03:04:51;;;;;;;3.43;1.77;;;5.70;99.90;;;;;;5072508;28;20189;-79
2020/12/27 03:07:17;;;;;;;2.33;1.73;;;5.70;99.90;;;;;;5072214;28;20280;-80
2020/12/27 03:09:43;;;;;;;3.37;1.70;;;5.80;99.90;;;;;;5072160;28;20222;-79
2020/12/27 03:12:10;;;;;;;2.00;1.63;;;5.70;99.90;;;;;;5072160;28;20243;-80
2020/12/27 03:14:36;;;;;;;1.53;1.30;;;5.80;99.90;;;;;;5071871;28;20190;-80
2020/12/27 03:17:03;;;;;;;2.70;1.33;;;5.80;99.90;;;;;;5072185;28;20354;-79
2020/12/27 03:19:30;;;;;;;2.47;1.50;;;5.80;99.90;;;;;;5071978;28;20298;-79
2020/12/27 03:21:56;;;;;;;3.43;1.60;;;5.80;99.90;;;;;;5071886;28;20232;-80
2020/12/27 03:24:22;;;;;;;2.67;1.60;;;5.90;99.90;;;;;;5071858;28;20552;-79
2020/12/27 03:26:49;;;;;;;2.50;1.27;;;5.90;99.90;;;;;;5071959;28;20197;-79
2020/12/27 03:29:15;;;;;;;2.00;1.53;;;6.00;99.90;;;;;;5071629;28;20288;-79
2020/12/27 03:31:41;;;;;;;1.70;1.30;;;6.00;99.90;;;;;;5071903;28;20187;-80
2020/12/27 03:34:08;;;;;;;1.67;1.30;;;6.00;99.90;;;;;;5071892;28;20279;-79
2020/12/27 03:36:35;;;;;;;2.33;1.07;;;5.90;99.90;;;;;;5071677;28;20269;-79
2020/12/27 03:39:01;;;;;;;2.97;1.10;;;6.00;99.90;;;;;;5071842;28;20199;-80
2020/12/27 03:41:27;;;;;;;2.10;0.90;;;6.00;99.90;;;;;;5071524;28;20313;-79
2020/12/27 03:43:54;;;;;;;0.63;0.50;;;6.00;99.90;;;;;;5071204;28;20658;-79
2020/12/27 03:46:20;;;;;;;2.10;0.63;;;6.00;99.90;;;;;;5072151;28;20285;-79
2020/12/27 03:48:46;;;;;;;2.10;0.93;;;6.00;99.90;;;;;;5072343;28;20282;-78
2020/12/27 03:51:14;;;;;;;1.80;0.80;;;6.00;99.90;;;;;;5071785;28;20201;-79
2020/12/27 03:53:40;;;;;;;0.73;0.60;;;6.10;99.90;;;;;;5072455;28;20217;-78
2020/12/27 03:56:07;;;;;;;2.40;0.93;;;6.10;99.90;;;;;;5071445;28;20198;-80
2020/12/27 03:58:33;;;;;;;1.03;0.77;;;6.10;99.90;;;;;;5070829;28;20204;-78
2020/12/27 04:01:00;;;;;;;1.27;0.70;;;6.20;99.90;;;;;;5070396;28;20213;-78
2020/12/27 04:03:26;;;;;;;5.27;0.83;;;6.10;99.90;;;;;;5068164;28;20209;-78
2020/12/27 04:05:52;;;;;;;0.63;0.63;;;6.10;99.90;;;;;;5060149;28;20675;-78
2020/12/27 04:08:19;;;;;;;1.70;0.67;;;6.10;99.90;;;;;;5062343;28;20203;-78
2020/12/27 04:10:46;;;;;;;1.67;0.70;;;6.10;99.90;;;;;;5054730;28;20206;-78
2020/12/27 04:13:12;;;;;;;1.00;0.80;;;6.10;99.90;;;;;;5051898;28;20240;-78
2020/12/27 04:15:39;;;;;;;0.90;0.60;;;6.10;99.90;;;;;;5051862;28;20205;-80
2020/12/27 04:18:05;;;;;;;0.87;0.60;;;6.10;99.90;;;;;;5064917;28;20200;-81
2020/12/27 04:20:32;;;;;;;0.90;0.50;;;6.10;99.90;;;;;;5051372;28;20216;-79
2020/12/27 04:22:58;;;;;;;0.80;0.60;;;6.00;99.90;;;;;;5051138;28;20584;-81
2020/12/27 04:25:26;;;;;;;1.07;0.70;;;6.10;99.90;;;;;;5051614;28;20205;-81
2020/12/27 04:27:52;;;;;;;0.50;0.50;;;6.10;99.90;;;;;;5051454;28;20230;-79
2020/12/27 04:30:18;;;;;;;1.10;0.47;;;6.00;99.90;;;;;;5053498;28;20238;-79
2020/12/27 04:32:45;;;;;;;0.60;0.50;;;6.00;99.90;;;;;;5056004;28;20206;-80
2020/12/27 04:35:11;;;;;;;0.90;0.57;;;5.90;99.90;;;;;;5067794;28;20242;-79
2020/12/27 04:37:38;;;;;;;1.13;0.60;;;5.90;99.90;;;;;;5054916;28;20211;-78
2020/12/27 04:40:05;;;;;;;0.70;0.60;;;5.90;99.90;;;;;;5054541;28;20201;-78
2020/12/27 04:42:32;;;;;;;0.70;0.60;;;5.90;99.90;;;;;;5055118;28;20220;-78
2020/12/27 04:45:00;;;;;;;1.00;0.53;;;5.90;99.90;;;;;;5054572;28;20737;-79
2020/12/27 04:47:26;;;;;;;1.33;0.50;;;5.90;99.90;;;;;;5054853;28;20563;-78
2020/12/27 04:49:53;;;;;;;0.40;0.40;;;5.90;99.90;;;;;;5054653;28;20214;-78
2020/12/27 04:52:21;;;;;;;0.90;0.40;;;5.90;99.90;;;;;;5054767;28;20224;-80
2020/12/27 04:54:50;;;;;;;1.40;0.40;;;5.80;99.90;;;;;;5054315;28;20216;-80
2020/12/27 04:57:17;;;;;;;1.27;0.40;;;5.90;99.90;;;;;;5054523;28;20678;-80
2020/12/27 04:59:47;;;;;;;1.23;0.30;;;5.90;99.90;;;;;;5054440;28;20259;-80
2020/12/27 05:02:15;;;;;;;1.60;0.40;;;5.80;99.90;;;;;;5054555;28;20397;-79
2020/12/27 05:04:43;;;;;;;0.77;0.40;;;5.80;99.90;;;;;;5054491;28;20228;-80
2020/12/27 05:07:09;;;;;;;1.27;0.30;;;5.80;99.90;;;;;;5057336;28;20200;-80
2020/12/27 05:09:35;;;;;;;0.50;0.40;;;5.80;99.90;;;;;;5064997;28;20209;-79
2020/12/27 05:12:02;;;;;;;1.13;0.40;;;5.80;99.90;;;;;;5054305;28;20198;-79
2020/12/27 05:14:29;;;;;;;0.40;0.40;;;5.80;99.90;;;;;;5054552;28;20557;-80
2020/12/27 05:16:58;;;;;;;0.60;0.40;;;5.80;99.90;;;;;;5054412;28;20202;-79
2020/12/27 05:19:24;;;;;;;0.97;0.40;;;5.70;99.90;;;;;;5054034;28;20218;-79
2020/12/27 05:21:51;;;;;;;0.80;0.50;;;5.70;99.90;;;;;;5053344;28;20458;-79
2020/12/27 05:24:18;;;;;;;0.67;0.50;;;5.80;99.90;;;;;;5053724;28;20604;-79
2020/12/27 05:26:47;;;;;;;0.33;0.30;;;5.80;99.90;;;;;;5054430;28;20218;-80
2020/12/27 05:29:30;;;;;;;0.63;0.37;;;5.70;99.90;;;;;;5053915;28;20231;-79
2020/12/27 05:31:58;;;;;;;1.60;0.53;;;5.70;99.90;;;;;;5054316;28;20208;-79
2020/12/27 05:34:25;;;;;;;0.90;0.30;;;5.80;99.90;;;;;;5053583;28;20207;-80
2020/12/27 05:36:52;;;;;;;1.53;0.30;;;5.80;99.90;;;;;;5053832;28;20747;-79
2020/12/27 05:39:19;;;;;;;0.70;0.37;;;5.80;99.90;;;;;;5053823;28;20260;-80
2020/12/27 05:41:45;;;;;;;1.27;0.33;;;5.80;99.90;;;;;;5052859;28;20221;-80
2020/12/27 05:44:11;;;;;;;0.20;0.20;;;5.80;99.90;;;;;;5053776;28;20553;-79
2020/12/27 05:46:38;;;;;;;0.50;0.20;;;5.80;99.90;;;;;;5053933;28;20201;-79
2020/12/27 05:49:05;;;;;;;0.43;0.40;;;5.80;99.90;;;;;;5053795;28;20296;-79
2020/12/27 05:51:39;;;;;;;0.20;0.20;;;5.90;99.90;;;;;;5053137;28;20305;-79
2020/12/27 05:54:11;;;;;;;0.57;0.30;;;5.90;99.90;;;;;;5053639;28;20288;-80
2020/12/27 05:56:41;;;;;;;0.60;0.30;;;5.90;99.90;;;;;;5053268;28;20246;-79
2020/12/27 05:59:08;;;;;;;0.70;0.30;;;5.90;99.90;;;;;;5053680;28;20201;-79
2020/12/27 06:01:38;;;;;;;0.20;0.20;;;5.90;99.90;;;;;;5052961;28;20226;-80
2020/12/27 06:04:05;;;;;;;0.37;0.30;;;5.90;99.90;;;;;;5053567;28;20199;-79
2020/12/27 06:07:03;;;;;;;1.63;0.30;;;5.90;99.90;;;;;;5053139;28;20297;-79
2020/12/27 06:09:54;;;;;;;0.27;0.20;;;5.90;99.90;;;;;;5053468;28;20202;-80
2020/12/27 06:12:22;;;;;;;0.50;0.30;;;5.90;99.90;;;;;;5053225;28;20212;-80
2020/12/27 06:15:23;;;;;;;0.50;0.20;;;5.90;99.90;;;;;;5053258;28;20198;-81
2020/12/27 06:18:07;;;;;;;0.30;0.30;;;5.90;99.90;;;;;;5010950;28;20201;-79
2020/12/27 06:20:36;;;;;;;0.30;0.30;;;5.90;99.90;;;;;;5052726;28;20671;-79
2020/12/27 06:23:03;;;;;;;0.37;0.30;;;5.90;99.90;;;;;;5052915;28;20663;-80
2020/12/27 06:25:30;;;;;;;0.73;0.20;;;6.00;99.90;;;;;;5053272;28;20201;-79
2020/12/27 06:27:57;;;;;;;0.40;0.10;;;5.90;99.90;;;;;;5053009;28;20205;-79
2020/12/27 06:30:26;;;;;;;1.07;0.20;;;5.90;99.90;;;;;;5053070;28;20202;-79
2020/12/27 06:32:57;;;;;;;0.30;0.10;;;6.00;99.90;;;;;;5052433;28;20270;-79
2020/12/27 06:35:30;;;;;;;0.10;0.10;;;6.00;99.90;;;;;;5053120;28;20293;-80
2020/12/27 06:37:57;;;;;;;0.20;0.20;;;6.00;99.90;;;;;;5052825;28;20630;-80
2020/12/27 06:40:25;;;;;;;0.53;0.20;;;6.00;99.90;;;;;;5052889;28;20205;-80
2020/12/27 06:42:51;;;;;;;0.20;0.10;;;6.00;99.90;;;;;;5052654;28;20221;-80
2020/12/27 06:45:29;;;;;;;0.50;0.10;;;6.00;99.90;;;;;;5052413;28;20209;-80
2020/12/27 06:47:56;;;;;;;0.23;0.10;;;6.00;99.90;;;;;;5052300;28;20209;-80
2020/12/27 06:50:25;;;;;;;0.30;0.10;;;6.00;99.90;;;;;;5052978;28;20212;-80
2020/12/27 06:52:51;;;;;;;0.37;0.20;;;6.10;99.90;;;;;;5052688;28;20294;-80
2020/12/27 06:55:36;;;;;;;0.57;0.30;;;6.10;99.90;;;;;;5053643;28;20205;-80
2020/12/27 06:58:19;;;;;;;0.77;0.40;;;6.10;99.90;;;;;;5052889;28;20227;-81
2020/12/27 07:00:46;;;;;;;0.37;0.30;;;6.10;99.90;;;;;;5052879;28;20209;-80
2020/12/27 07:03:16;;;;;;;0.40;0.23;;;6.10;99.90;;;;;;5052253;28;20226;-80
2020/12/27 07:05:44;;;;;;;0.20;0.10;;;6.10;99.90;;;;;;5052350;28;20645;-80
2020/12/27 07:08:12;;;;;;;1.17;0.43;;;6.10;99.90;;;;;;5063756;28;20206;-79
2020/12/27 07:10:41;;;;;;;0.30;0.30;;;6.10;99.90;;;;;;5054156;28;20201;-80
2020/12/27 07:13:09;;;;;;;0.30;0.17;;;6.10;99.90;;;;;;5052246;28;20571;-80
2020/12/27 07:15:45;;;;;;;0.20;0.20;;;6.10;99.90;;;;;;5051982;28;20228;-81
2020/12/27 07:18:12;;;;;;;1.37;0.30;;;6.10;99.90;;;;;;5052139;28;20658;-80
2020/12/27 07:20:43;;;;;;;1.17;0.17;;;6.10;99.90;;;;;;5051590;28;20209;-80
2020/12/27 07:23:17;;;;;;;0.30;0.10;;;6.10;99.90;;;;;;5052526;28;20617;-82
2020/12/27 07:25:44;;;;;;;0.40;0.20;;;6.10;99.90;;;;;;5052019;28;20208;-79
2020/12/27 07:28:12;;;;;;;0.70;0.20;;;6.10;99.90;;;;;;5052093;28;20245;-80
2020/12/27 07:30:40;;;;;;;0.17;0.17;;;6.10;99.90;;;;;;5051824;28;20197;-79
2020/12/27 07:33:11;;;;;;;2.00;0.33;;;6.10;99.90;;;;;;5051882;28;20197;-80
2020/12/27 07:35:37;;;;;;;0.20;0.20;;;6.20;99.90;;;;;;5052065;28;20197;-80
2020/12/27 07:38:06;;;;;;;0.30;0.10;;;6.20;99.90;;;;;;5051828;28;20634;-80
2020/12/27 07:40:34;;;;;;;0.40;0.20;;;6.20;99.90;;;;;;5052148;28;20590;-81
2020/12/27 07:43:03;;;;;;;0.27;0.27;;;6.20;99.90;;;;;;5051534;28;20221;-80
2020/12/27 07:45:29;;;;;;;2.37;0.30;;;6.30;99.90;;;;;;5051890;28;20285;-81
2020/12/27 07:47:55;;;;;;;0.70;0.27;;;6.30;99.90;;;;;;5051674;28;20210;-80
2020/12/27 07:50:22;;;;;;;0.20;0.20;;;6.30;99.90;;;;;;5051598;28;20561;-80
2020/12/27 07:52:53;;;;;;;0.40;0.20;;;6.40;99.90;;;;;;5051973;28;20639;-80
2020/12/27 07:55:21;;;;;;;0.30;0.20;;;6.30;99.90;;;;;;5051969;28;20205;-82
2020/12/27 07:57:48;;;;;;;1.77;0.40;;;6.40;99.90;;;;;;5051385;28;20201;-79
2020/12/27 08:00:16;;;;;;;0.70;0.30;;;6.40;99.90;;;;;;5051789;28;20201;-80
2020/12/27 08:02:43;;;;;;;2.10;0.30;;;6.40;99.90;;;;;;5051537;28;20278;-80
2020/12/27 08:05:11;;;;;;;0.50;0.30;;;6.40;99.90;;;;;;5055692;28;20205;-80
2020/12/27 08:07:37;;;;;;;0.47;0.30;;;6.40;99.90;;;;;;5066976;28;20208;-80
2020/12/27 08:10:17;;;;;;;0.30;0.20;;;6.50;99.90;;;;;;5068758;28;20654;-79
2020/12/27 08:12:54;;;;;;;1.60;0.30;;;6.50;99.90;;;;;;5064638;28;20608;-80
2020/12/27 08:15:23;;;;;;;1.17;0.47;;;6.50;99.90;;;;;;5063888;28;20786;-79
2020/12/27 08:18:01;;;;;;;0.47;0.30;;;6.50;99.90;;;;;;5061946;28;20194;-80
2020/12/27 08:20:29;;;;;;;0.60;0.10;;;6.50;99.90;;;;;;5062668;28;20248;-81
2020/12/27 08:22:59;;;;;;;0.40;0.30;;;6.50;99.90;;;;;;5059075;28;20222;-80
2020/12/27 08:25:27;;;;;;;0.40;0.20;;;6.40;99.90;;;;;;5071933;28;20443;-80
2020/12/27 08:27:54;;;;;;;2.00;0.40;;;6.50;99.90;;;;;;5075253;28;20201;-81
2020/12/27 08:30:21;;;;;;;0.20;0.20;;;6.50;99.90;;;;;;5070334;28;20215;-80
2020/12/27 08:32:48;;;;;;;0.23;0.20;;;6.50;99.90;;;;;;5068474;28;20239;-81
2020/12/27 08:35:24;;;;;;;0.23;0.10;;;6.50;99.90;;;;;;5074964;28;20236;-81
2020/12/27 08:37:56;;;;;;;0.57;0.30;;;6.60;99.90;;;;;;5066590;28;20697;-81
2020/12/27 08:40:26;;;;;;;1.97;0.30;;;6.50;99.90;;;;;;5060089;28;20262;-81
2020/12/27 08:42:55;;;;;;;0.60;0.23;;;6.50;99.90;;;;;;5062192;28;20308;-82
2020/12/27 08:45:23;;;;;;;0.30;0.20;;;6.40;99.90;;;;;;5057968;28;20631;-80
2020/12/27 08:47:58;;;;;;;1.03;0.27;;;6.40;99.90;;;;;;5064378;28;20208;-81
2020/12/27 08:50:26;;;;;;;0.50;0.20;;;6.40;99.90;;;;;;5063946;28;20292;-80
2020/12/27 08:52:55;;;;;;;1.07;0.40;;;6.50;99.90;;;;;;5062759;28;20201;-81
2020/12/27 08:55:25;;;;;;;0.40;0.20;;;6.50;99.90;;;;;;5061592;28;20205;-81
2020/12/27 08:57:52;;;;;;;0.50;0.20;;;6.50;99.90;;;;;;5055339;28;20528;-80
2020/12/27 09:00:20;;;;;;;0.30;0.20;;;6.50;99.90;;;;;;5060791;28;20295;-82
2020/12/27 09:02:56;;;;;;;0.33;0.17;;;6.40;99.90;;;;;;5071557;28;20705;-81
2020/12/27 09:05:26;;;;;;;0.23;0.20;;;6.50;99.90;;;;;;5062868;28;20547;-80
2020/12/27 09:07:52;;;;;;;1.37;0.40;;;6.50;99.90;;;;;;5070751;28;20569;-79
2020/12/27 09:10:21;;;;;;;2.83;0.30;;;6.50;99.90;;;;;;5063760;28;20207;-81
2020/12/27 09:12:59;;;;;;;0.30;0.20;;;6.40;99.90;;;;;;5054377;28;20201;-81
2020/12/27 09:15:27;;;;;;;0.37;0.10;;;6.40;99.90;;;;;;5053938;28;20588;-82
2020/12/27 09:18:00;;;;;;;0.30;0.10;;;6.40;99.90;;;;;;5054509;28;20362;-80
2020/12/27 09:20:27;;;;;;;0.20;0.20;;;6.50;99.90;;;;;;5060103;28;20290;-79
2020/12/27 09:22:54;;;;;;;2.00;0.30;;;6.50;99.90;;;;;;5053085;28;20324;-78
2020/12/27 09:25:22;;;;;;;0.10;0.10;;;6.50;99.90;;;;;;5051875;28;20673;-80
2020/12/27 09:27:50;;;;;;;0.40;0.30;;;6.50;99.90;;;;;;5060065;28;20789;-80
2020/12/27 09:30:18;;;;;;;0.60;0.20;;;6.50;99.90;;;;;;5055997;28;20270;-80
2020/12/27 09:32:45;;;;;;;0.10;0.10;;;6.50;99.90;;;;;;5064118;28;20206;-81
2020/12/27 09:35:22;;;;;;;0.50;0.20;;;6.60;99.90;;;;;;5061450;28;20288;-80
2020/12/27 09:37:50;;;;;;;1.03;0.30;;;6.60;99.90;;;;;;5055967;28;20228;-79
2020/12/27 09:40:17;;;;;;;0.67;0.40;;;6.60;99.90;;;;;;5053629;28;20206;-80
2020/12/27 09:42:45;;;;;;;0.17;0.17;;;6.50;99.90;;;;;;5057293;28;20320;-80
2020/12/27 09:45:22;;;;;;;1.97;0.40;;;6.50;99.90;;;;;;5061961;28;20230;-79
2020/12/27 09:47:54;;;;;;;1.23;0.30;;;6.50;99.90;;;;;;5066194;28;20263;-80
2020/12/27 09:50:35;;;;;;;0.23;0.23;;;6.50;99.90;;;;;;5072870;28;20200;-80
2020/12/27 09:53:02;;;;;;;1.70;0.40;;;6.50;99.90;;;;;;5071911;28;20197;-80
2020/12/27 09:55:29;;;;;;;0.40;0.30;;;6.50;99.90;;;;;;5069115;28;20203;-79
2020/12/27 09:57:56;;;;;;;0.53;0.20;;;6.60;99.90;;;;;;5072889;28;20288;-79
2020/12/27 10:00:23;;;;;;;0.30;0.20;;;6.50;99.90;;;;;;5070592;28;20610;-80
2020/12/27 10:02:50;;;;;;;1.50;0.30;;;6.60;99.90;;;;;;5072772;28;20278;-79
2020/12/27 10:05:16;;;;;;;0.40;0.30;;;6.60;99.90;;;;;;5072287;28;20609;-80
2020/12/27 10:07:44;;;;;;;0.37;0.30;;;6.60;99.90;;;;;;5064920;28;20223;-79
2020/12/27 10:10:12;;;;;;;0.77;0.30;;;6.60;99.90;;;;;;5068900;28;20200;-79
2020/12/27 10:12:39;;;;;;;0.73;0.30;;;6.60;99.90;;;;;;5053151;28;20223;-80
2020/12/27 10:15:07;;;;;;;0.80;0.30;;;6.60;99.90;;;;;;5066857;28;20196;-80
2020/12/27 10:17:34;;;;;;;0.30;0.20;;;6.50;99.90;;;;;;5057473;28;20289;-80
2020/12/27 10:20:01;;;;;;;2.07;0.33;;;6.50;99.90;;;;;;5060600;28;20255;-80
2020/12/27 10:22:27;;;;;;;0.97;0.23;;;6.50;99.90;;;;;;5055369;28;20765;-81
2020/12/27 10:24:55;;;;;;;0.40;0.20;;;6.50;99.90;;;;;;5055151;28;20212;-80
2020/12/27 10:27:21;;;;;;;0.50;0.20;;;6.50;99.90;;;;;;5057050;28;20291;-80
2020/12/27 10:29:48;;;;;;;2.50;0.33;;;6.50;99.90;;;;;;5057560;28;20224;-80
2020/12/27 10:32:14;;;;;;;1.47;0.30;;;6.50;99.90;;;;;;5066102;28;20296;-80
2020/12/27 10:34:40;;;;;;;1.37;0.20;;;6.50;99.90;;;;;;5066655;28;20210;-79
2020/12/27 10:37:07;;;;;;;0.83;0.20;;;6.50;99.90;;;;;;5060629;28;20278;-80
2020/12/27 10:39:34;;;;;;;1.77;0.23;;;6.50;99.90;;;;;;5062075;28;20292;-80
2020/12/27 10:42:01;;;;;;;0.23;0.17;;;6.50;99.90;;;;;;5065546;28;20224;-81
2020/12/27 10:44:27;;;;;;;0.57;0.30;;;6.50;99.90;;;;;;5061545;28;20665;-79
2020/12/27 10:46:54;;;;;;;1.00;0.30;;;6.60;99.90;;;;;;5063230;28;20209;-80
2020/12/27 10:49:22;;;;;;;1.63;0.80;;;6.60;99.90;;;;;;5059115;28;20230;-80
2020/12/27 10:51:48;;;;;;;1.10;0.57;;;6.50;99.90;;;;;;5063130;28;20201;-80
2020/12/27 10:54:15;;;;;;;0.30;0.20;;;6.50;99.90;;;;;;5071879;28;20770;-80
2020/12/27 10:56:43;;;;;;;1.77;0.20;;;6.50;99.90;;;;;;5059912;28;20196;-80
2020/12/27 10:59:10;;;;;;;0.37;0.20;;;6.50;99.90;;;;;;5075557;28;20197;-80
2020/12/27 11:01:36;;;;;;;0.60;0.20;;;6.50;99.90;;;;;;5072380;28;20283;-80
2020/12/27 11:04:03;;;;;;;0.20;0.10;;;6.50;99.90;;;;;;5071544;28;20200;-80
2020/12/27 11:06:31;;;;;;;0.40;0.30;;;6.40;99.90;;;;;;5071138;28;20210;-79
2020/12/27 11:08:58;;;;;;;0.67;0.20;;;6.40;99.90;;;;;;5053622;28;20257;-80
2020/12/27 11:11:24;;;;;;;0.30;0.10;;;6.40;99.90;;;;;;5061337;28;20209;-79
2020/12/27 11:13:51;;;;;;;0.87;0.43;;;6.40;99.90;;;;;;5071044;28;20196;-80
2020/12/27 11:16:18;;;;;;;2.30;0.70;;;6.40;99.90;;;;;;5067880;28;20232;-80
2020/12/27 11:18:45;;;;;;;2.17;0.40;;;6.40;99.90;;;;;;5065772;28;20211;-80
2020/12/27 11:21:12;;;;;;;1.77;0.70;;;6.40;99.90;;;;;;5054509;28;20206;-80
2020/12/27 11:23:38;;;;;;;1.50;0.80;;;6.40;99.90;;;;;;5051361;28;20218;-80
2020/12/27 11:26:05;;;;;;;1.70;1.00;;;6.40;99.90;;;;;;5053770;28;20277;-80
2020/12/27 11:28:31;;;;;;;1.27;0.90;;;6.50;99.90;;;;;;5058036;28;20220;-80
2020/12/27 11:30:58;;;;;;;0.23;0.17;;;6.50;99.90;;;;;;5060779;28;20207;-80
2020/12/27 11:33:25;;;;;;;1.30;0.63;;;6.50;99.90;;;;;;5057377;28;20203;-80
2020/12/27 11:35:52;;;;;;;0.67;0.60;;;6.40;99.90;;;;;;5058489;28;20251;-80
2020/12/27 11:38:18;;;;;;;1.47;0.57;;;6.50;99.90;;;;;;5063609;28;20205;-80
2020/12/27 11:40:44;;;;;;;0.73;0.50;;;6.50;99.90;;;;;;5065405;28;20205;-79
2020/12/27 11:43:11;;;;;;;0.87;0.30;;;6.50;99.90;;;;;;5065439;28;20362;-78
2020/12/27 11:45:37;;;;;;;1.07;0.27;;;6.60;99.90;;;;;;5068942;28;20278;-81
2020/12/27 11:48:03;;;;;;;0.60;0.30;;;6.60;99.90;;;;;;5060069;28;20204;-80
2020/12/27 11:50:31;;;;;;;0.77;0.40;;;6.60;99.90;;;;;;5067575;28;20209;-81
2020/12/27 11:52:57;;;;;;;1.10;0.50;;;6.60;99.90;;;;;;5075179;28;20208;-81
2020/12/27 11:55:23;;;;;;;0.30;0.20;;;6.60;99.90;;;;;;5073706;28;20283;-79
2020/12/27 11:57:52;;;;;;;0.43;0.20;;;6.50;99.90;;;;;;5073456;28;20287;-78
2020/12/27 12:00:19;;;;;;;0.23;0.13;;;6.50;99.90;;;;;;5070082;28;20202;-81
2020/12/27 12:02:45;;;;;;;0.30;0.20;;;6.50;99.90;;;;;;5073111;28;20232;-78
2020/12/27 12:05:11;;;;;;;0.90;0.33;;;6.50;99.90;;;;;;5067276;28;20205;-79
2020/12/27 12:07:39;;;;;;;0.30;0.20;;;6.60;99.90;;;;;;5071179;28;20212;-79
2020/12/27 12:10:05;;;;;;;1.60;0.30;;;6.50;99.90;;;;;;5073131;28;20287;-79
2020/12/27 12:12:33;;;;;;;0.43;0.30;;;6.60;99.90;;;;;;5066408;28;20290;-81
2020/12/27 12:15:00;;;;;;;0.13;0.10;;;6.60;99.90;;;;;;5038670;28;20284;-80
2020/12/27 12:17:26;;;;;;;0.50;0.27;;;6.60;99.90;;;;;;5054954;28;20214;-80
2020/12/27 12:19:53;;;;;;;0.17;0.17;;;6.60;99.90;;;;;;5058153;28;20214;-78
2020/12/27 12:22:19;;;;;;;0.43;0.20;;;6.60;99.90;;;;;;5064004;28;20280;-78
2020/12/27 12:24:46;;;;;;;0.90;0.40;;;6.60;99.90;;;;;;5057215;28;20207;-78
2020/12/27 12:27:13;;;;;;;0.20;0.17;;;6.70;99.90;;;;;;5064137;28;20205;-78
2020/12/27 12:29:39;;;;;;;0.20;0.10;;;6.70;99.90;;;;;;5064272;28;20214;-78
2020/12/27 12:32:05;;;;;;;0.97;0.30;;;6.60;99.90;;;;;;5054404;28;20292;-78
2020/12/27 12:34:32;;;;;;;1.00;0.20;;;6.60;99.90;;;;;;5055788;28;20233;-78
2020/12/27 12:36:58;;;;;;;1.73;0.20;;;6.50;99.90;;;;;;5060757;28;20201;-79
2020/12/27 12:39:24;;;;;;;0.40;0.20;;;6.60;99.90;;;;;;5049228;28;20269;-79
2020/12/27 12:41:55;;;;;;;0.73;0.20;;;6.60;99.90;;;;;;5068926;28;20218;-79
2020/12/27 12:44:21;;;;;;;0.27;0.27;;;6.60;99.90;;;;;;5060525;28;21105;-80
2020/12/27 12:46:48;;;;;;;0.30;0.20;;;6.60;99.90;;;;;;5049292;28;20292;-80
2020/12/27 12:49:15;;;;;;;0.60;0.10;;;6.60;99.90;;;;;;5064339;28;20216;-79
2020/12/27 12:51:41;;;;;;;0.47;0.10;;;6.60;99.90;;;;;;5068933;28;20197;-82
2020/12/27 12:54:07;;;;;;;0.50;0.20;;;6.60;99.90;;;;;;5060770;28;20221;-80
2020/12/27 12:56:34;;;;;;;0.53;0.10;;;6.60;99.90;;;;;;5053364;28;20205;-79
2020/12/27 12:59:01;;;;;;;0.30;0.20;;;6.50;99.90;;;;;;5054648;28;20309;-79
2020/12/27 13:01:28;;;;;;;0.33;0.23;;;6.60;99.90;;;;;;5071149;28;20228;-78